Terminal Aerodrome Forecast
Issued by NWS Sioux Falls, SD

Home | Current Version | Previous Version | Text Only | Print | Product List | Glossary On
Versions: 1 2 3 4 5 6 7 8 9 10 11 12 13 14 15 16 17 18 19
000
FTUS43 KFSD 210300 AAA
TAFHON
TAF AMD
KHON 210348Z 2104/2124 14008KT P6SM SCT035 BKN110
      TEMPO 2105/2107 4SM TSRA BKN035CB
     FM210800 VRB04KT 3SM BR BKN010
     FM211500 02005KT P6SM SCT012 BKN100
     FM211800 36007KT P6SM SCT035=

USA.gov is the U.S. government's official web portal to all federal, state and local government web resources and services.